Time;durP1;ratioP1;P1;durP2;ratioP2;P2;SDS_P1;SDS_P2;PMS_P1;PMS_P2;Temp;Humidity;BMP_temperature;BMP_pressure;BME280_temperature;BME280_humidity;BME280_pressure;Samples;Min_cycle;Max_cycle;Signal;HPM_P1;HPM_P2
2022/09/30 00:01:31;;;;;;;21.52;13.65;;;;;;;11.41;71.12;99595.59;5072600;28;20033;-58
2022/09/30 00:03:56;;;;;;;19.95;13.30;;;;;;;11.34;71.25;99591.75;5072236;28;20059;-54
2022/09/30 00:06:26;;;;;;;22.27;13.20;;;;;;;11.31;71.48;99603.59;5072828;28;20028;-59
2022/09/30 00:08:52;;;;;;;21.35;13.27;;;;;;;11.25;71.76;99600.63;5072563;28;20032;-58
2022/09/30 00:11:20;;;;;;;21.73;13.23;;;;;;;11.11;72.36;99605.34;5072399;28;20043;-55
2022/09/30 00:13:49;;;;;;;16.35;11.95;;;;;;;11.00;72.34;99603.59;5072261;28;20036;-54
2022/09/30 00:16:15;;;;;;;17.40;13.05;;;;;;;10.92;72.88;99606.09;5072211;28;20107;-54
2022/09/30 00:18:42;;;;;;;19.88;12.40;;;;;;;10.91;73.02;99609.75;5072473;28;20113;-54
2022/09/30 00:21:08;;;;;;;23.30;12.45;;;;;;;10.77;73.28;99597.53;5071586;28;20043;-51
2022/09/30 00:23:36;;;;;;;14.85;11.75;;;;;;;10.79;73.66;99616.13;5071899;28;20059;-55
2022/09/30 00:26:05;;;;;;;14.57;11.23;;;;;;;10.79;73.35;99632.19;5072446;28;20139;-52
2022/09/30 00:28:31;;;;;;;20.25;12.05;;;;;;;10.63;73.77;99633.50;5071828;28;20120;-52
2022/09/30 00:31:01;;;;;;;19.85;12.90;;;;;;;10.65;74.10;99636.91;5072666;28;20107;-50
2022/09/30 00:33:26;;;;;;;15.80;12.13;;;;;;;10.64;74.08;99632.53;5072393;28;20093;-54
2022/09/30 00:35:52;;;;;;;15.57;11.82;;;;;;;10.59;73.90;99632.03;5072237;28;20040;-53
2022/09/30 00:38:17;;;;;;;16.95;11.50;;;;;;;10.59;74.04;99637.41;5071750;28;20044;-50
2022/09/30 00:40:43;;;;;;;16.95;11.50;;;;;;;10.56;74.17;99643.00;5072022;28;20024;-54
2022/09/30 00:43:36;;;;;;;16.73;11.52;;;;;;;10.60;74.33;99644.44;5071492;28;20438;-55
2022/09/30 00:46:02;;;;;;;17.52;11.95;;;;;;;10.50;74.69;99640.84;5072259;28;20097;-57
2022/09/30 00:48:36;;;;;;;15.27;11.07;;;;;;;10.52;74.55;99645.13;5072063;28;20056;-56
2022/09/30 00:51:05;;;;;;;18.45;11.93;;;;;;;10.46;75.04;99650.97;5072064;28;20032;-51
2022/09/30 00:53:45;;;;;;;15.98;11.38;;;;;;;10.45;74.94;99643.91;5072558;28;20029;-52
2022/09/30 00:56:19;;;;;;;17.60;11.55;;;;;;;10.41;74.90;99640.66;5072122;28;20067;-56
2022/09/30 00:58:50;;;;;;;16.83;11.27;;;;;;;10.41;74.62;99655.84;5071622;28;20104;-56
2022/09/30 01:01:16;;;;;;;16.35;10.98;;;;;;;10.34;75.15;99644.75;5072106;28;20033;-54
2022/09/30 01:04:08;;;;;;;14.02;10.88;;;;;;;10.30;74.44;99633.50;5071924;28;20111;-53
2022/09/30 01:06:34;;;;;;;14.82;10.75;;;;;;;10.36;74.42;99652.69;5065956;28;20041;-58
2022/09/30 01:09:00;;;;;;;16.10;10.57;;;;;;;10.34;74.48;99644.75;5071847;28;20044;-51
2022/09/30 01:11:27;;;;;;;15.43;11.23;;;;;;;10.31;74.49;99643.22;5072075;28;20043;-52
2022/09/30 01:13:57;;;;;;;15.65;11.05;;;;;;;10.32;74.73;99630.66;5072249;28;20103;-55
2022/09/30 01:16:44;;;;;;;14.25;10.68;;;;;;;10.41;74.41;99647.81;5071446;28;20028;-53
2022/09/30 01:19:15;;;;;;;19.58;11.38;;;;;;;10.34;74.53;99645.63;5071672;28;20072;-54
2022/09/30 01:22:07;;;;;;;14.32;11.25;;;;;;;10.33;74.65;99643.94;5072113;28;20101;-54
2022/09/30 01:24:51;;;;;;;17.52;11.32;;;;;;;10.33;74.67;99645.75;5055378;28;20028;-61
2022/09/30 01:27:45;;;;;;;17.92;11.10;;;;;;;10.30;75.28;99648.69;5062253;28;20028;-50
2022/09/30 01:30:38;;;;;;;17.50;10.98;;;;;;;10.26;74.96;99650.78;5062044;28;20048;-55
2022/09/30 01:33:18;;;;;;;16.00;10.68;;;;;;;10.31;74.73;99645.03;5063560;28;20074;-60
2022/09/30 01:36:16;;;;;;;14.40;10.90;;;;;;;10.33;74.64;99653.78;5065942;28;20032;-53
2022/09/30 01:38:48;;;;;;;15.18;10.80;;;;;;;10.32;74.45;99655.63;5065620;28;20068;-55
2022/09/30 01:41:19;;;;;;;15.07;10.82;;;;;;;10.32;74.47;99647.59;5068687;28;20033;-59
2022/09/30 01:43:54;;;;;;;21.10;11.57;;;;;;;10.37;74.21;99652.56;5067969;28;20024;-56
2022/09/30 01:46:45;;;;;;;16.55;11.32;;;;;;;10.32;74.39;99646.72;5075323;28;20068;-56
2022/09/30 01:49:31;;;;;;;15.18;11.05;;;;;;;10.41;74.48;99656.72;5075188;28;20110;-56
2022/09/30 01:52:22;;;;;;;19.50;11.23;;;;;;;10.41;74.48;99651.38;5074333;28;20463;-55
2022/09/30 01:55:09;;;;;;;16.20;11.15;;;;;;;10.29;74.70;99647.84;5075217;28;20048;-57
2022/09/30 01:57:55;;;;;;;16.50;11.35;;;;;;;10.36;74.60;99644.66;5074707;28;20029;-54
2022/09/30 02:00:21;;;;;;;18.17;11.43;;;;;;;10.27;74.29;99638.22;5055192;28;20044;-53
2022/09/30 02:02:52;;;;;;;15.70;11.70;;;;;;;10.23;74.64;99642.97;5064280;28;20362;-57
2022/09/30 02:05:28;;;;;;;20.00;11.80;;;;;;;10.23;74.74;99650.16;5075154;28;20029;-57
2022/09/30 02:07:59;;;;;;;16.92;11.00;;;;;;;10.17;74.73;99643.50;5074902;28;20036;-58
2022/09/30 02:10:33;;;;;;;18.70;11.55;;;;;;;10.16;75.06;99655.16;5074961;28;20028;-58
2022/09/30 02:13:21;;;;;;;16.92;11.48;;;;;;;10.15;75.21;99645.44;5074970;28;20098;-54
2022/09/30 02:16:11;;;;;;;18.42;11.93;;;;;;;10.18;75.06;99651.41;5074838;28;20069;-54
2022/09/30 02:18:42;;;;;;;17.45;10.75;;;;;;;10.07;75.45;99648.75;5073801;28;20417;-53
2022/09/30 02:21:10;;;;;;;22.70;11.25;;;;;;;9.97;75.44;99645.13;5074916;28;20502;-53
2022/09/30 02:23:41;;;;;;;16.85;10.98;;;;;;;9.86;75.21;99627.28;5074580;28;20028;-59
2022/09/30 02:26:20;;;;;;;18.05;11.57;;;;;;;9.86;75.40;99620.09;5074883;28;20033;-59
2022/09/30 02:28:56;;;;;;;14.55;11.23;;;;;;;10.04;75.30;99651.66;5074155;28;20108;-58
2022/09/30 02:31:23;;;;;;;;;;;;;;;10.29;74.70;99658.56;5074569;28;20196;-56
2022/09/30 02:34:14;;;;;;;16.52;10.35;;;;;;;10.09;74.50;99616.53;5074807;28;19962;-57
2022/09/30 02:36:47;;;;;;;18.05;10.85;;;;;;;10.13;74.64;99640.22;5074018;28;20056;-56
2022/09/30 02:39:22;;;;;;;15.23;10.50;;;;;;;10.15;75.08;99653.47;5074256;28;20036;-54
2022/09/30 02:41:53;;;;;;;14.18;10.38;;;;;;;10.11;74.91;99644.84;5074605;28;20025;-55
2022/09/30 02:44:19;;;;;;;14.95;10.30;;;;;;;10.08;74.86;99650.44;5073415;28;20029;-53
2022/09/30 02:47:05;;;;;;;16.67;10.82;;;;;;;10.20;74.88;99653.94;5074145;28;20443;-54
2022/09/30 02:49:39;;;;;;;14.70;10.32;;;;;;;10.22;74.78;99645.78;5074354;28;20404;-54
2022/09/30 02:52:10;;;;;;;18.05;10.95;;;;;;;10.26;74.30;99649.91;5074356;28;20059;-51
2022/09/30 02:55:01;;;;;;;15.82;10.40;;;;;;;10.37;74.53;99647.22;5074110;28;20359;-56
2022/09/30 02:57:37;;;;;;;14.68;11.10;;;;;;;10.39;74.19;99652.44;5073732;28;20064;-55
2022/09/30 03:00:04;;;;;;;17.17;10.63;;;;;;;10.39;74.35;99655.09;5074264;28;20036;-54
2022/09/30 03:02:31;;;;;;;19.35;10.93;;;;;;;10.41;73.79;99651.38;5073832;28;20543;-53
2022/09/30 03:04:56;;;;;;;15.93;10.50;;;;;;;10.43;73.94;99665.47;5073609;28;20036;-56
2022/09/30 03:07:22;;;;;;;15.63;10.52;;;;;;;10.43;73.70;99654.75;5074211;28;20028;-57
2022/09/30 03:09:47;;;;;;;19.63;11.38;;;;;;;10.48;73.88;99662.38;5073627;28;20085;-56
2022/09/30 03:12:27;;;;;;;16.58;11.60;;;;;;;10.51;73.60;99666.66;5073927;28;20032;-56
2022/09/30 03:15:01;;;;;;;15.82;11.00;;;;;;;10.60;73.59;99657.84;5073628;28;20475;-55
2022/09/30 03:17:49;;;;;;;13.23;10.57;;;;;;;10.60;73.55;99653.34;5073694;28;20037;-55
2022/09/30 03:20:38;;;;;;;14.88;10.90;;;;;;;10.63;73.18;99660.28;5072635;28;20043;-56
2022/09/30 03:23:21;;;;;;;19.05;11.05;;;;;;;10.71;73.16;99668.50;5072367;28;20109;-53
2022/09/30 03:26:08;;;;;;;14.13;10.43;;;;;;;10.70;73.16;99656.09;5073682;28;20444;-54
2022/09/30 03:29:07;;;;;;;14.85;10.55;;;;;;;10.66;72.83;99656.47;5073326;28;20035;-56
2022/09/30 03:31:54;;;;;;;16.42;10.75;;;;;;;10.60;73.19;99665.88;5073171;28;20052;-56
2022/09/30 03:34:25;;;;;;;15.20;10.30;;;;;;;10.55;73.09;99668.09;5071701;28;20033;-51
2022/09/30 03:37:12;;;;;;;14.65;10.70;;;;;;;10.60;72.82;99660.50;5073345;28;20125;-51
2022/09/30 03:40:01;;;;;;;19.17;10.85;;;;;;;10.62;73.07;99669.31;5073531;28;20462;-53
2022/09/30 03:42:37;;;;;;;15.70;10.63;;;;;;;10.64;73.06;99672.69;5072897;28;20074;-55
2022/09/30 03:45:11;;;;;;;14.90;10.02;;;;;;;10.62;73.06;99669.31;5073404;28;20033;-50
2022/09/30 03:47:42;;;;;;;16.08;10.32;;;;;;;10.61;73.04;99664.94;5073759;28;20025;-56
2022/09/30 03:50:11;;;;;;;16.63;10.52;;;;;;;10.59;72.80;99657.00;5073099;28;20446;-56
2022/09/30 03:52:37;;;;;;;14.15;11.07;;;;;;;10.60;72.94;99660.50;5073073;28;20040;-58
2022/09/30 03:55:07;;;;;;;16.42;10.40;;;;;;;10.64;72.76;99656.63;5072359;28;20143;-58
2022/09/30 03:57:33;;;;;;;15.55;10.68;;;;;;;10.56;72.61;99648.38;5072930;28;20028;-57
2022/09/30 03:59:59;;;;;;;16.60;10.98;;;;;;;10.71;72.46;99657.81;5072469;28;20035;-54
2022/09/30 04:02:25;;;;;;;12.05;10.25;;;;;;;10.73;72.47;99655.84;5072631;28;20029;-51
2022/09/30 04:04:51;;;;;;;16.42;10.25;;;;;;;10.80;72.29;99663.34;5072592;28;20454;-55
2022/09/30 04:07:17;;;;;;;14.05;10.52;;;;;;;10.83;71.83;99652.38;5072323;28;20032;-56
2022/09/30 04:09:42;;;;;;;16.95;10.45;;;;;;;10.93;71.55;99661.34;5072565;28;20123;-59
2022/09/30 04:12:08;;;;;;;17.65;11.07;;;;;;;11.03;71.35;99667.59;5072914;28;20346;-56
2022/09/30 04:14:34;;;;;;;14.55;10.10;;;;;;;11.01;70.61;99648.13;5072248;28;20086;-58
2022/09/30 04:17:01;;;;;;;15.68;10.50;;;;;;;11.24;70.19;99664.06;5072684;28;20053;-57
2022/09/30 04:19:27;;;;;;;16.70;10.10;;;;;;;11.38;69.59;99660.19;5072226;28;20120;-57
2022/09/30 04:21:53;;;;;;;15.10;9.60;;;;;;;11.54;69.47;99664.22;5072848;28;20111;-58
2022/09/30 04:24:19;;;;;;;11.38;9.07;;;;;;;11.72;68.57;99668.00;5072492;28;20020;-57
2022/09/30 04:26:45;;;;;;;12.23;9.18;;;;;;;11.80;68.18;99666.44;5072169;28;20378;-52
2022/09/30 04:29:10;;;;;;;14.48;10.00;;;;;;;11.91;67.97;99667.19;5072893;28;20024;-54
2022/09/30 04:31:36;;;;;;;12.23;9.55;;;;;;;12.01;67.42;99674.44;5072338;28;20039;-53
2022/09/30 04:34:01;;;;;;;13.48;9.40;;;;;;;12.10;66.79;99662.91;5071911;28;20059;-53
2022/09/30 04:36:27;;;;;;;14.85;9.55;;;;;;;12.22;66.46;99666.31;5072572;28;20025;-55
2022/09/30 04:38:52;;;;;;;13.80;9.27;;;;;;;12.30;65.38;99655.72;5071360;28;20024;-54
2022/09/30 04:41:18;;;;;;;15.45;9.77;;;;;;;12.36;65.34;99657.00;5072125;28;20067;-55
2022/09/30 04:43:45;;;;;;;16.35;10.18;;;;;;;12.38;65.50;99665.78;5072033;28;20035;-60
2022/09/30 04:46:16;;;;;;;12.52;8.80;;;;;;;12.34;65.57;99664.38;5072881;28;20090;-57
2022/09/30 04:48:45;;;;;;;15.05;9.80;;;;;;;12.28;65.73;99652.34;5072079;28;20106;-56
2022/09/30 04:51:12;;;;;;;11.85;8.77;;;;;;;12.25;65.93;99663.34;5072069;28;20374;-54
2022/09/30 04:53:38;;;;;;;12.35;9.40;;;;;;;12.18;65.76;99667.59;5071236;28;20032;-57
2022/09/30 04:56:04;;;;;;;12.60;9.20;;;;;;;12.14;66.04;99671.50;5070795;28;20032;-56
2022/09/30 04:58:31;;;;;;;12.52;8.68;;;;;;;12.15;65.67;99668.72;5071971;28;20402;-55
2022/09/30 05:01:16;;;;;;;12.32;8.75;;;;;;;12.29;65.90;99669.28;5072152;28;20028;-55
2022/09/30 05:03:42;;;;;;;14.13;8.75;;;;;;;12.27;64.84;99672.13;5072870;28;20060;-54
2022/09/30 05:06:08;;;;;;;9.70;8.57;;;;;;;12.31;64.83;99672.69;5071853;28;20047;-57
2022/09/30 05:08:34;;;;;;;16.17;8.65;;;;;;;12.17;65.16;99672.09;5074759;28;20089;-53
2022/09/30 05:11:08;;;;;;;13.13;9.30;;;;;;;12.29;65.05;99655.84;5076091;28;20029;-56
2022/09/30 05:13:35;;;;;;;12.45;8.52;;;;;;;12.30;64.91;99671.00;5076162;28;20443;-56
2022/09/30 05:16:01;;;;;;;12.18;8.93;;;;;;;12.29;64.65;99659.41;5075000;28;20153;-57
2022/09/30 05:18:27;;;;;;;12.00;9.23;;;;;;;12.19;64.80;99645.97;5075573;28;20426;-56
2022/09/30 05:20:56;;;;;;;16.13;8.68;;;;;;;12.40;64.19;99661.13;5076135;28;20075;-57
2022/09/30 05:23:22;;;;;;;17.17;9.63;;;;;;;12.29;64.55;99653.16;5076072;28;20031;-61
2022/09/30 05:25:49;;;;;;;11.20;9.32;;;;;;;12.21;64.85;99661.94;5075867;28;20036;-57
2022/09/30 05:28:15;;;;;;;15.10;9.38;;;;;;;12.17;64.67;99668.56;5075948;28;20082;-56
2022/09/30 05:30:42;;;;;;;13.52;8.32;;;;;;;12.10;64.91;99676.31;5073823;28;20095;-58
2022/09/30 05:33:08;;;;;;;11.63;8.10;;;;;;;12.08;65.09;99674.75;5075466;28;20460;-58
2022/09/30 05:35:34;;;;;;;12.82;9.07;;;;;;;12.10;65.00;99676.31;5076315;28;20454;-63
2022/09/30 05:38:02;;;;;;;11.93;8.98;;;;;;;12.11;64.63;99678.03;5075425;28;20028;-63
2022/09/30 05:40:27;;;;;;;12.68;9.50;;;;;;;12.12;64.70;99677.03;5075289;28;20040;-61
2022/09/30 05:42:56;;;;;;;17.38;9.43;;;;;;;12.26;64.51;99686.53;5070287;28;20038;-60
2022/09/30 05:45:21;;;;;;;12.70;8.48;;;;;;;12.34;64.19;99688.53;5074965;28;20439;-56
2022/09/30 05:47:53;;;;;;;12.35;8.60;;;;;;;12.49;63.85;99687.13;5075021;28;20021;-58
2022/09/30 05:50:20;;;;;;;16.42;8.75;;;;;;;12.65;63.25;99685.72;5075073;28;20076;-57
2022/09/30 05:52:46;;;;;;;16.08;9.32;;;;;;;13.01;62.08;99682.44;5075875;28;20047;-56
2022/09/30 05:55:12;;;;;;;10.48;8.50;;;;;;;13.30;61.11;99681.56;5075146;28;20113;-61
2022/09/30 05:57:38;;;;;;;13.45;9.07;;;;;;;13.47;60.34;99682.66;5074957;28;20040;-55
2022/09/30 06:00:05;;;;;;;11.90;8.73;;;;;;;13.57;59.78;99679.94;5074754;28;20036;-57
2022/09/30 06:02:30;;;;;;;13.73;8.65;;;;;;;13.46;59.79;99657.63;5074646;28;20431;-63
2022/09/30 06:04:56;;;;;;;14.00;9.13;;;;;;;13.63;59.06;99672.13;5074792;28;20119;-63
2022/09/30 06:07:22;;;;;;;12.00;8.27;;;;;;;13.71;59.40;99678.63;5073972;28;20427;-64
2022/09/30 06:09:47;;;;;;;11.43;8.07;;;;;;;13.68;59.09;99652.88;5057580;28;20126;-63
2022/09/30 06:12:13;;;;;;;17.23;9.55;;;;;;;13.84;58.87;99671.06;5075039;28;20028;-63
2022/09/30 06:14:38;;;;;;;13.35;8.35;;;;;;;13.95;58.82;99664.63;5073660;28;20048;-63
2022/09/30 06:17:05;;;;;;;17.40;8.70;;;;;;;14.04;58.42;99670.97;5075228;28;20439;-63
2022/09/30 06:19:31;;;;;;;14.77;9.07;;;;;;;14.17;57.77;99682.22;5073952;28;20041;-63
2022/09/30 06:21:57;;;;;;;11.43;8.23;;;;;;;14.45;57.52;99678.66;5072935;28;20119;-63
2022/09/30 06:24:23;;;;;;;11.27;7.97;;;;;;;14.75;56.46;99672.06;5074865;28;20128;-63
2022/09/30 06:26:48;;;;;;;13.65;8.80;;;;;;;15.04;55.42;99678.16;5074039;28;20032;-64
2022/09/30 06:29:14;;;;;;;14.20;8.55;;;;;;;15.18;55.42;99676.75;5072686;28;20040;-64
2022/09/30 06:31:39;;;;;;;15.80;8.88;;;;;;;15.23;54.39;99658.28;5053373;28;20030;-64
2022/09/30 06:34:05;;;;;;;16.40;8.75;;;;;;;15.49;54.32;99676.31;5073258;28;20355;-64
2022/09/30 06:36:32;;;;;;;15.73;8.88;;;;;;;15.66;53.76;99666.44;5073236;28;20060;-63
2022/09/30 06:39:03;;;;;;;16.73;8.95;;;;;;;15.84;53.57;99677.16;5072925;28;20123;-63
2022/09/30 06:41:29;;;;;;;20.25;8.82;;;;;;;15.87;52.96;99639.03;5073952;28;20036;-64
2022/09/30 06:43:55;;;;;;;17.40;8.60;;;;;;;16.28;52.29;99670.78;5074055;28;20161;-63
2022/09/30 06:46:23;;;;;;;18.30;9.55;;;;;;;16.54;51.32;99672.50;5073499;28;20025;-65
2022/09/30 06:48:56;;;;;;;14.15;8.85;;;;;;;16.93;50.88;99674.53;5074094;28;20044;-63
2022/09/30 06:51:24;;;;;;;21.15;9.55;;;;;;;17.39;48.85;99666.94;5074157;28;20478;-63
2022/09/30 06:53:51;;;;;;;17.48;8.57;;;;;;;17.94;47.75;99671.50;5074321;28;20111;-64
2022/09/30 06:56:19;;;;;;;16.23;8.95;;;;;;;18.43;46.62;99674.13;5074465;28;20028;-64
2022/09/30 06:58:45;;;;;;;17.60;9.20;;;;;;;18.74;45.57;99684.94;5073993;28;20062;-63
2022/09/30 07:01:13;;;;;;;17.88;8.93;;;;;;;19.18;44.78;99682.59;5073550;28;20041;-63
2022/09/30 07:03:40;;;;;;;17.92;8.95;;;;;;;19.72;43.25;99658.94;5073696;28;20348;-64
2022/09/30 07:06:06;;;;;;;16.52;8.88;;;;;;;20.40;41.79;99672.34;5073415;28;20404;-63
2022/09/30 07:08:34;;;;;;;20.30;9.90;;;;;;;20.56;41.53;99679.44;5073696;28;20424;-63
2022/09/30 07:11:03;;;;;;;16.48;8.38;;;;;;;20.99;40.60;99684.09;5052828;28;20356;-63
2022/09/30 07:13:28;;;;;;;24.77;8.93;;;;;;;21.75;38.85;99668.09;5053824;28;20040;-65
2022/09/30 07:15:55;;;;;;;20.80;11.30;;;;;;;22.66;36.94;99682.47;5058541;28;20031;-64
2022/09/30 07:18:27;;;;;;;18.58;8.27;;;;;;;23.37;36.08;99692.00;5065876;28;20071;-64
2022/09/30 07:20:54;;;;;;;14.80;8.70;;;;;;;24.19;34.41;99679.84;5072321;28;20389;-66
2022/09/30 07:23:21;;;;;;;13.40;8.68;;;;;;;25.25;32.60;99680.44;5072846;28;20032;-63
2022/09/30 07:25:49;;;;;;;18.23;9.50;;;;;;;25.79;31.66;99686.25;5068500;28;20391;-62
2022/09/30 07:28:15;;;;;;;15.35;8.85;;;;;;;25.01;31.74;99678.31;5071190;28;20024;-62
2022/09/30 07:30:42;;;;;;;17.13;9.07;;;;;;;24.20;33.45;99686.13;5070875;28;20020;-70
2022/09/30 07:33:09;;;;;;;12.02;8.45;;;;;;;23.44;34.60;99685.72;5069350;28;20047;-64
2022/09/30 07:35:36;;;;;;;15.75;9.20;;;;;;;22.70;36.06;99686.50;5051564;28;20442;-66
2022/09/30 07:38:02;;;;;;;15.55;9.55;;;;;;;22.32;36.94;99687.00;5072720;28;20086;-66
2022/09/30 07:40:30;;;;;;;15.80;9.60;;;;;;;22.94;35.86;99678.75;5072726;28;20036;-65
2022/09/30 07:42:56;;;;;;;22.02;9.40;;;;;;;23.47;34.45;99671.63;5072099;28;20336;-63
2022/09/30 07:45:22;;;;;;;18.65;8.80;;;;;;;23.35;34.80;99663.22;5072941;28;20041;-64
2022/09/30 07:47:48;;;;;;;11.35;9.02;;;;;;;23.24;34.80;99678.34;5072973;28;20039;-65
2022/09/30 07:50:14;;;;;;;20.88;10.27;;;;;;;23.37;34.98;99689.25;5072134;28;20048;-65
2022/09/30 07:52:40;;;;;;;16.88;9.40;;;;;;;23.57;34.41;99691.13;5072528;28;20040;-64
2022/09/30 07:55:06;;;;;;;20.40;9.65;;;;;;;23.37;34.76;99672.88;5072789;28;20339;-65
2022/09/30 07:57:31;;;;;;;17.65;9.95;;;;;;;23.00;35.46;99669.72;5071907;28;20032;-64
2022/09/30 07:59:57;;;;;;;21.48;10.02;;;;;;;22.42;36.78;99681.16;5071409;28;20036;-66
2022/09/30 08:02:23;;;;;;;18.08;10.18;;;;;;;21.55;38.59;99690.56;5071773;28;20032;-64
2022/09/30 08:04:49;;;;;;;19.45;11.45;;;;;;;20.72;40.15;99689.22;5072626;28;20028;-64
2022/09/30 08:07:15;;;;;;;15.45;10.23;;;;;;;20.20;41.59;99683.84;5072465;28;20106;-64
2022/09/30 08:09:41;;;;;;;20.45;10.88;;;;;;;19.68;42.77;99666.66;5071710;28;20413;-65
2022/09/30 08:12:07;;;;;;;15.48;10.98;;;;;;;19.68;43.38;99673.94;5070112;28;20032;-65
2022/09/30 08:14:33;;;;;;;18.20;10.77;;;;;;;19.69;43.45;99683.78;5070962;28;20050;-66
2022/09/30 08:16:59;;;;;;;23.40;12.00;;;;;;;19.62;43.43;99679.09;5071867;28;20029;-65
2022/09/30 08:19:26;;;;;;;19.42;11.65;;;;;;;19.40;44.02;99680.00;5072444;28;20032;-69
2022/09/30 08:21:52;;;;;;;27.92;11.45;;;;;;;19.01;45.21;99677.28;5070502;28;20030;-64
2022/09/30 08:24:19;;;;;;;19.88;10.85;;;;;;;18.91;45.64;99677.50;5070767;28;20450;-65
2022/09/30 08:26:44;;;;;;;24.45;11.40;;;;;;;18.90;46.03;99675.00;5072490;28;20421;-66
2022/09/30 08:29:12;;;;;;;19.60;11.88;;;;;;;18.94;46.29;99670.91;5071858;28;20442;-65
2022/09/30 08:31:38;;;;;;;23.13;12.10;;;;;;;18.91;46.47;99671.25;5071917;28;20224;-65
2022/09/30 08:34:03;;;;;;;20.95;12.07;;;;;;;18.78;46.87;99663.75;5071064;28;20111;-64
2022/09/30 08:36:29;;;;;;;20.42;12.05;;;;;;;18.64;47.23;99659.94;5071195;28;20431;-67
2022/09/30 08:38:56;;;;;;;16.50;11.73;;;;;;;18.68;47.30;99682.97;5071368;28;20033;-68
2022/09/30 08:41:33;;;;;;;18.98;12.18;;;;;;;18.78;47.01;99674.59;5071765;28;20040;-66
2022/09/30 08:44:04;;;;;;;20.15;12.57;;;;;;;18.90;47.07;99675.00;5051872;28;20036;-64
2022/09/30 08:46:44;;;;;;;23.25;12.38;;;;;;;18.99;47.04;99671.22;5052166;28;20144;-65
2022/09/30 08:49:56;;;;;;;20.55;12.30;;;;;;;19.18;46.85;99677.16;5071100;28;20048;-64
2022/09/30 08:52:32;;;;;;;22.13;13.27;;;;;;;19.25;46.64;99680.81;5071713;28;20047;-65
2022/09/30 08:54:59;;;;;;;20.77;13.63;;;;;;;19.10;46.71;99669.09;5071111;28;20405;-65
2022/09/30 08:57:33;;;;;;;20.05;12.38;;;;;;;19.07;46.87;99665.75;5071625;28;20075;-65
2022/09/30 09:00:05;;;;;;;21.15;12.88;;;;;;;19.18;46.95;99660.88;5071638;28;20362;-64
2022/09/30 09:02:45;;;;;;;20.90;13.75;;;;;;;19.34;46.68;99663.44;5071545;28;20669;-69
2022/09/30 09:05:23;;;;;;;24.35;13.32;;;;;;;19.63;46.48;99666.34;5071937;28;20048;-64
2022/09/30 09:08:27;;;;;;;25.45;12.90;;;;;;;19.89;46.28;99656.88;5071045;28;20336;-66
2022/09/30 09:11:16;;;;;;;20.00;12.57;;;;;;;20.03;45.99;99652.50;5059534;28;20541;-64
2022/09/30 09:14:02;;;;;;;23.30;12.70;;;;;;;20.16;45.94;99662.69;5070168;28;20450;-65
2022/09/30 09:16:40;;;;;;;27.17;13.15;;;;;;;20.22;45.63;99656.47;5070040;28;20330;-65
2022/09/30 09:19:14;;;;;;;24.48;13.00;;;;;;;20.20;45.71;99647.69;5071308;28;20041;-66
2022/09/30 09:21:48;;;;;;;19.23;12.82;;;;;;;20.08;45.97;99653.59;5072072;28;20024;-66
2022/09/30 09:24:21;;;;;;;21.10;13.10;;;;;;;19.75;46.71;99661.28;5071159;28;20055;-67
2022/09/30 09:26:48;;;;;;;16.75;12.00;;;;;;;19.41;47.69;99644.53;5067580;28;20052;-65
2022/09/30 09:29:35;;;;;;;17.10;12.25;;;;;;;19.48;48.14;99650.03;5069505;28;20028;-65
2022/09/30 09:32:02;;;;;;;18.80;12.98;;;;;;;19.20;48.56;99658.81;5070503;28;20477;-64
2022/09/30 09:34:30;;;;;;;18.35;13.52;;;;;;;18.96;49.40;99668.84;5070041;28;20028;-70
2022/09/30 09:37:07;;;;;;;20.17;13.15;;;;;;;18.89;49.98;99670.59;5071690;28;20522;-66
2022/09/30 09:39:42;;;;;;;20.83;12.60;;;;;;;18.73;50.61;99675.13;5070402;28;20033;-66
2022/09/30 09:42:16;;;;;;;19.52;13.27;;;;;;;18.55;50.89;99661.00;5070949;28;20040;-66
2022/09/30 09:44:52;;;;;;;22.00;14.43;;;;;;;18.63;51.07;99667.22;5070986;28;20043;-65
2022/09/30 09:47:18;;;;;;;28.80;15.18;;;;;;;18.63;50.99;99659.09;5070885;28;20156;-65
2022/09/30 09:50:04;;;;;;;20.67;14.55;;;;;;;18.74;51.04;99668.66;5070127;28;20048;-65
2022/09/30 09:52:41;;;;;;;23.00;15.00;;;;;;;18.96;50.49;99674.25;5056497;28;20040;-64
2022/09/30 09:55:08;;;;;;;22.10;14.70;;;;;;;18.82;51.15;99654.22;5072654;28;20107;-66
2022/09/30 09:57:34;;;;;;;21.75;15.93;;;;;;;18.87;50.96;99662.63;5073696;28;20032;-65
2022/09/30 10:03:02;;;;;;;21.58;16.05;;;;;;;19.10;50.84;99661.78;5072225;28;20032;-65
2022/09/30 10:05:30;;;;;;;20.48;15.05;;;;;;;19.01;51.01;99655.59;5061899;28;20119;-70
2022/09/30 10:08:09;;;;;;;26.83;15.65;;;;;;;19.10;51.24;99659.09;5074212;28;20134;-64
2022/09/30 10:10:50;;;;;;;23.88;15.93;;;;;;;19.03;51.75;99661.69;5073280;28;20060;-64
2022/09/30 10:13:28;;;;;;;23.67;15.88;;;;;;;18.86;51.67;99625.69;5074386;28;20446;-65
2022/09/30 10:15:55;;;;;;;23.65;15.15;;;;;;;19.08;51.45;99651.13;5073768;28;20561;-63
2022/09/30 10:18:36;;;;;;;24.25;15.68;;;;;;;19.29;51.49;99641.44;5073449;28;20037;-63
2022/09/30 10:21:06;;;;;;;26.00;16.35;;;;;;;19.42;51.46;99654.38;5074391;28;20028;-64
2022/09/30 10:23:37;;;;;;;25.33;17.15;;;;;;;19.54;51.05;99652.03;5074901;28;20033;-63
2022/09/30 10:26:15;;;;;;;28.88;16.67;;;;;;;19.67;50.72;99647.81;5072591;28;20366;-65
2022/09/30 10:28:48;;;;;;;21.90;16.17;;;;;;;19.91;50.51;99644.81;5074057;28;20037;-63
2022/09/30 10:31:19;;;;;;;30.58;17.52;;;;;;;19.72;50.39;99616.34;5074709;28;20024;-64
2022/09/30 10:33:47;;;;;;;22.35;17.23;;;;;;;19.72;51.02;99646.22;5073718;28;20447;-64
2022/09/30 10:36:28;;;;;;;22.40;16.30;;;;;;;19.69;51.37;99640.31;5074172;28;20043;-65
2022/09/30 10:38:53;;;;;;;26.17;16.95;;;;;;;19.58;51.68;99639.78;5073928;28;20052;-65
2022/09/30 10:41:28;;;;;;;25.02;17.58;;;;;;;19.66;51.57;99652.41;5074214;28;20068;-65
2022/09/30 10:43:58;;;;;;;27.15;17.15;;;;;;;19.51;51.85;99655.09;5073799;28;20043;-63
2022/09/30 10:46:29;;;;;;;22.30;15.80;;;;;;;19.53;51.85;99655.75;5074347;28;20032;-66
2022/09/30 10:48:56;;;;;;;24.95;15.63;;;;;;;19.71;51.87;99649.13;5073607;28;20447;-63
2022/09/30 10:51:29;;;;;;;20.20;15.60;;;;;;;19.95;51.09;99645.28;5073422;28;20043;-64
2022/09/30 10:53:55;;;;;;;22.13;15.15;;;;;;;19.76;51.27;99619.50;5072366;28;20112;-64
2022/09/30 10:56:42;;;;;;;24.73;16.15;;;;;;;19.82;51.55;99643.22;5072482;28;20112;-64
2022/09/30 10:59:37;;;;;;;20.40;15.85;;;;;;;19.89;51.78;99651.44;5073853;28;20037;-66
2022/09/30 11:02:15;;;;;;;24.58;17.38;;;;;;;19.70;52.05;99651.00;5071369;28;20052;-65
2022/09/30 11:04:53;;;;;;;23.85;16.42;;;;;;;19.50;52.29;99659.69;5073029;28;20032;-65
2022/09/30 11:07:28;;;;;;;25.23;15.60;;;;;;;19.34;52.96;99649.88;5064454;28;20032;-66
2022/09/30 11:10:24;;;;;;;26.08;16.40;;;;;;;19.16;53.51;99647.47;5073967;28;20097;-65
2022/09/30 11:13:06;;;;;;;26.33;15.85;;;;;;;19.12;53.76;99650.78;5073470;28;20037;-66
2022/09/30 11:15:37;;;;;;;20.00;15.57;;;;;;;19.02;54.17;99646.44;5069948;28;20455;-65
2022/09/30 11:18:28;;;;;;;21.08;15.02;;;;;;;19.16;53.92;99652.09;5065270;28;20040;-64
2022/09/30 11:21:00;;;;;;;21.88;15.50;;;;;;;19.15;53.62;99644.97;5073279;28;20028;-66
2022/09/30 11:23:34;;;;;;;20.63;15.93;;;;;;;19.17;53.26;99637.47;5072028;28;20036;-64
2022/09/30 11:26:17;;;;;;;21.40;15.45;;;;;;;19.14;53.60;99643.28;5073443;28;20569;-65
2022/09/30 11:28:49;;;;;;;20.08;14.93;;;;;;;19.05;53.73;99646.09;5072245;28;20075;-65
2022/09/30 11:31:36;;;;;;;21.30;14.48;;;;;;;19.15;53.71;99639.53;5072552;28;20111;-66
2022/09/30 11:34:21;;;;;;;22.45;14.35;;;;;;;19.06;53.85;99650.50;5070905;28;20304;-65
2022/09/30 11:37:08;;;;;;;23.27;15.35;;;;;;;19.05;53.67;99656.09;5072645;28;20120;-66
2022/09/30 11:39:44;;;;;;;19.60;14.38;;;;;;;19.22;53.21;99654.91;5072423;28;20068;-66
2022/09/30 11:42:24;;;;;;;23.02;14.45;;;;;;;19.32;53.13;99648.34;5072987;28;20025;-69
2022/09/30 11:45:02;;;;;;;23.25;15.50;;;;;;;19.48;53.01;99645.47;5063404;28;20119;-64